Time;durP1;ratioP1;P1;durP2;ratioP2;P2;SDS_P1;SDS_P2;PMS_P1;PMS_P2;Temp;Humidity;BMP_temperature;BMP_pressure;BME280_temperature;BME280_humidity;BME280_pressure;Samples;Min_cycle;Max_cycle;Signal;HPM_P1;HPM_P2
2022/03/18 00:00:00;;;;;;;10.17;6.87;;;2.90;99.90;;;;;;4998116;28;20229;-86
2022/03/18 00:02:26;;;;;;;7.83;5.63;;;2.90;99.90;;;;;;4996661;28;20183;-87
2022/03/18 00:04:54;;;;;;;10.30;6.60;;;2.90;99.90;;;;;;4998271;28;20230;-86
2022/03/18 00:07:21;;;;;;;11.20;6.30;;;2.90;99.90;;;;;;4998021;28;20264;-86
2022/03/18 00:09:50;;;;;;;9.50;6.10;;;2.80;99.90;;;;;;4997826;28;20266;-86
2022/03/18 00:12:15;;;;;;;7.53;5.90;;;2.90;99.90;;;;;;4998075;28;20192;-86
2022/03/18 00:14:42;;;;;;;7.30;4.87;;;2.90;99.90;;;;;;4997445;28;20252;-84
2022/03/18 00:17:09;;;;;;;7.80;5.27;;;2.80;99.90;;;;;;4996091;28;20202;-82
2022/03/18 00:19:36;;;;;;;7.73;5.13;;;2.80;99.90;;;;;;4997612;28;20222;-85
2022/03/18 00:22:03;;;;;;;6.67;4.87;;;2.80;99.90;;;;;;4997603;28;20171;-86
2022/03/18 00:24:31;;;;;;;6.13;4.80;;;2.80;99.90;;;;;;4996912;28;20184;-84
2022/03/18 00:26:58;;;;;;;4.83;4.33;;;2.80;99.90;;;;;;4997499;28;20247;-86
2022/03/18 00:29:25;;;;;;;6.53;4.57;;;2.80;99.90;;;;;;4997593;28;20176;-86
2022/03/18 00:31:51;;;;;;;15.80;5.33;;;2.70;99.90;;;;;;4997645;28;20315;-86
2022/03/18 00:34:17;;;;;;;6.43;4.80;;;2.70;99.90;;;;;;4996224;28;20492;-86
2022/03/18 00:36:43;;;;;;;15.10;5.47;;;2.70;99.90;;;;;;4997465;28;20196;-86
2022/03/18 00:39:09;;;;;;;5.50;4.53;;;2.60;99.90;;;;;;4997333;28;20232;-86
2022/03/18 00:41:35;;;;;;;49.27;6.80;;;2.60;99.90;;;;;;4996652;28;20199;-84
2022/03/18 00:44:01;;;;;;;5.27;4.33;;;2.50;99.90;;;;;;4997557;28;20180;-85
2022/03/18 00:46:26;;;;;;;5.57;4.20;;;2.40;99.90;;;;;;4997186;28;20180;-86
2022/03/18 00:54:21;;;;;;;8.77;5.63;;;2.20;99.90;;;;;;4996953;28;20175;-85
2022/03/18 00:56:47;;;;;;;8.10;5.80;;;2.20;99.90;;;;;;4997030;28;20171;-86
2022/03/18 00:59:13;;;;;;;9.70;6.43;;;2.30;99.90;;;;;;4996835;28;20210;-87
2022/03/18 01:01:39;;;;;;;7.97;5.57;;;2.30;99.90;;;;;;4996542;28;20176;-86
2022/03/18 01:04:05;;;;;;;8.13;6.13;;;2.30;99.90;;;;;;4996862;28;20296;-86
2022/03/18 01:06:35;;;;;;;9.40;6.37;;;2.40;99.90;;;;;;4996578;28;20172;-85
2022/03/18 01:09:02;;;;;;;6.67;4.93;;;2.30;99.90;;;;;;4996831;28;20172;-84
2022/03/18 01:11:29;;;;;;;7.10;5.00;;;2.30;99.90;;;;;;4996880;28;20184;-85
2022/03/18 01:13:54;;;;;;;6.50;4.53;;;2.30;99.90;;;;;;4997025;28;20258;-85
2022/03/18 01:16:20;;;;;;;6.93;4.50;;;2.30;99.90;;;;;;4996648;28;20230;-85
2022/03/18 01:18:46;;;;;;;6.53;4.67;;;2.30;99.90;;;;;;4996549;28;20206;-85
2022/03/18 01:21:11;;;;;;;8.80;4.97;;;2.30;99.90;;;;;;4996590;28;20175;-85
2022/03/18 01:23:38;;;;;;;6.87;4.50;;;2.20;99.90;;;;;;4995321;28;20193;-85
2022/03/18 01:26:04;;;;;;;5.83;4.23;;;2.20;99.90;;;;;;4996369;28;20618;-86
2022/03/18 01:28:30;;;;;;;5.33;4.50;;;2.20;99.90;;;;;;4996458;28;20262;-84
2022/03/18 01:30:56;;;;;;;5.40;4.23;;;2.20;99.90;;;;;;4996394;28;20237;-85
2022/03/18 01:33:22;;;;;;;6.00;4.10;;;2.20;99.90;;;;;;4997169;28;20181;-84
2022/03/18 01:35:47;;;;;;;6.93;4.27;;;2.20;99.90;;;;;;4996355;28;20177;-83
2022/03/18 01:38:13;;;;;;;7.00;4.67;;;2.10;99.90;;;;;;4996160;28;20205;-85
2022/03/18 01:40:39;;;;;;;5.23;4.07;;;2.10;99.90;;;;;;4996265;28;20179;-83
2022/03/18 01:43:11;;;;;;;7.43;4.30;;;2.00;99.90;;;;;;4996174;28;20322;-84
2022/03/18 01:45:38;;;;;;;5.70;4.10;;;2.00;99.90;;;;;;4994835;28;20517;-84
2022/03/18 01:48:04;;;;;;;6.90;4.00;;;2.00;99.90;;;;;;4996166;28;20172;-80
2022/03/18 01:50:31;;;;;;;6.80;4.00;;;2.00;99.90;;;;;;4996296;28;20623;-82
2022/03/18 01:52:57;;;;;;;5.27;3.60;;;2.00;99.90;;;;;;4995907;28;20195;-84
2022/03/18 01:55:24;;;;;;;3.87;3.20;;;2.00;99.90;;;;;;4994362;28;20194;-83
2022/03/18 01:57:51;;;;;;;6.63;4.50;;;2.00;99.90;;;;;;4995822;28;20179;-82
2022/03/18 02:00:21;;;;;;;4.80;4.30;;;2.00;99.90;;;;;;4995830;28;20231;-82
2022/03/18 02:02:48;;;;;;;4.57;3.80;;;1.90;99.90;;;;;;4995794;28;20222;-85
2022/03/18 02:05:13;;;;;;;5.47;3.80;;;1.90;99.90;;;;;;4995485;28;20582;-85
2022/03/18 02:07:39;;;;;;;8.47;3.90;;;1.90;99.90;;;;;;4995070;28;20183;-83
2022/03/18 02:10:06;;;;;;;5.90;4.27;;;1.90;99.90;;;;;;4995591;28;20260;-84
2022/03/18 02:12:33;;;;;;;7.20;3.83;;;1.80;99.90;;;;;;4995748;28;20175;-83
2022/03/18 02:14:58;;;;;;;5.87;3.70;;;1.90;99.90;;;;;;4995753;28;20176;-85
2022/03/18 02:17:24;;;;;;;5.47;4.00;;;2.00;99.90;;;;;;4993584;28;20191;-85
2022/03/18 02:19:50;;;;;;;4.53;3.93;;;2.00;99.90;;;;;;4995697;28;20563;-82
2022/03/18 02:22:20;;;;;;;5.70;4.00;;;2.00;99.90;;;;;;4995536;28;20266;-84
2022/03/18 02:24:48;;;;;;;7.07;3.70;;;2.10;99.90;;;;;;4994946;28;20311;-83
2022/03/18 02:27:15;;;;;;;6.07;4.13;;;2.00;99.90;;;;;;4995428;28;20188;-84
2022/03/18 02:29:42;;;;;;;6.20;4.07;;;2.00;99.90;;;;;;4995607;28;20257;-85
2022/03/18 02:32:09;;;;;;;4.37;3.47;;;2.00;99.90;;;;;;4995543;28;20206;-81
2022/03/18 02:34:36;;;;;;;5.40;3.50;;;1.90;99.90;;;;;;4995548;28;20242;-82
2022/03/18 02:37:02;;;;;;;6.33;3.70;;;1.80;99.90;;;;;;4994948;28;20172;-84
2022/03/18 02:39:28;;;;;;;5.07;3.50;;;1.80;99.90;;;;;;4993803;28;20218;-84
2022/03/18 02:41:54;;;;;;;4.60;3.77;;;1.80;99.90;;;;;;4995060;28;20168;-84
2022/03/18 02:44:20;;;;;;;4.73;3.20;;;1.80;99.90;;;;;;4994664;28;20573;-82
2022/03/18 02:46:46;;;;;;;5.70;3.50;;;1.70;99.90;;;;;;4995044;28;20177;-82
2022/03/18 02:49:11;;;;;;;6.57;3.87;;;1.70;99.90;;;;;;4995118;28;20184;-85
2022/03/18 02:51:37;;;;;;;7.07;4.20;;;1.70;99.90;;;;;;4993944;28;20168;-85
2022/03/18 02:54:04;;;;;;;7.23;4.17;;;1.70;99.90;;;;;;4994906;28;20177;-85
2022/03/18 02:56:31;;;;;;;7.70;4.13;;;1.70;99.90;;;;;;4995224;28;20610;-85
2022/03/18 02:58:57;;;;;;;8.30;3.70;;;1.70;99.90;;;;;;4995398;28;20249;-85
2022/03/18 03:01:22;;;;;;;6.07;3.63;;;1.70;99.90;;;;;;4994091;28;20591;-85
2022/03/18 03:03:48;;;;;;;6.33;4.00;;;1.70;99.90;;;;;;4994213;28;20618;-86
2022/03/18 03:08:58;;;;;;;7.27;4.20;;;1.60;99.90;;;;;;4994928;28;20183;-85
2022/03/18 03:11:24;;;;;;;9.43;4.37;;;1.50;99.90;;;;;;4993198;28;20180;-85
2022/03/18 03:13:50;;;;;;;8.70;4.03;;;1.50;99.90;;;;;;4994879;28;20188;-85
2022/03/18 03:16:15;;;;;;;6.07;4.43;;;1.50;99.90;;;;;;4994379;28;20194;-85
2022/03/18 03:18:41;;;;;;;8.80;3.97;;;1.50;99.90;;;;;;4996559;28;20228;-85
2022/03/18 03:21:07;;;;;;;6.20;3.77;;;1.50;99.90;;;;;;4999256;28;20521;-86
2022/03/18 03:23:32;;;;;;;7.33;3.90;;;1.50;99.90;;;;;;4999222;28;20184;-84
2022/03/18 03:25:58;;;;;;;5.90;3.77;;;1.50;99.90;;;;;;4998417;28;20231;-86
2022/03/18 03:28:24;;;;;;;6.60;4.00;;;1.50;99.90;;;;;;4998699;28;20187;-85
2022/03/18 03:30:50;;;;;;;6.90;4.07;;;1.50;99.90;;;;;;4998738;28;20178;-85
2022/03/18 03:33:16;;;;;;;5.33;3.50;;;1.40;99.90;;;;;;4998701;28;20297;-84
2022/03/18 03:35:42;;;;;;;5.27;3.60;;;1.40;99.90;;;;;;4998443;28;20189;-85
2022/03/18 03:38:10;;;;;;;6.97;4.30;;;1.40;99.90;;;;;;4996201;28;20509;-86
2022/03/18 03:40:37;;;;;;;8.33;4.23;;;1.40;99.90;;;;;;4998409;28;20180;-83
2022/03/18 03:43:03;;;;;;;11.33;4.40;;;1.40;99.90;;;;;;4998494;28;20172;-85
2022/03/18 03:45:28;;;;;;;11.07;4.30;;;1.30;99.90;;;;;;4998361;28;20341;-85
2022/03/18 03:47:54;;;;;;;8.70;4.50;;;1.30;99.90;;;;;;4998353;28;20267;-83
2022/03/18 03:50:19;;;;;;;10.13;4.07;;;1.40;99.90;;;;;;4998419;28;20605;-85
2022/03/18 03:52:45;;;;;;;8.57;4.07;;;1.40;99.90;;;;;;4998557;28;20180;-85
2022/03/18 03:55:13;;;;;;;10.77;4.57;;;1.50;99.90;;;;;;4997318;28;20206;-85
2022/03/18 03:57:40;;;;;;;8.13;3.73;;;1.40;99.90;;;;;;4998296;28;20191;-83
2022/03/18 04:00:08;;;;;;;9.00;4.83;;;1.40;99.90;;;;;;4998402;28;20209;-85
2022/03/18 04:02:34;;;;;;;11.37;4.17;;;1.40;99.90;;;;;;4998139;28;20164;-84
2022/03/18 04:04:59;;;;;;;6.33;4.00;;;1.40;99.90;;;;;;4998067;28;20226;-85
2022/03/18 04:07:26;;;;;;;6.70;4.33;;;1.40;99.90;;;;;;4996737;28;20184;-85
2022/03/18 04:09:54;;;;;;;10.30;4.40;;;1.40;99.90;;;;;;4998051;28;20519;-86
2022/03/18 04:12:21;;;;;;;10.80;4.37;;;1.30;99.90;;;;;;4998254;28;20170;-86
2022/03/18 04:14:47;;;;;;;8.03;4.53;;;1.10;99.90;;;;;;4997975;28;20187;-85
2022/03/18 04:17:13;;;;;;;9.03;4.10;;;1.10;99.90;;;;;;4997654;28;20202;-85
2022/03/18 04:19:39;;;;;;;10.07;4.20;;;1.10;99.90;;;;;;4997557;28;20291;-86
2022/03/18 04:22:05;;;;;;;12.07;4.37;;;1.00;99.90;;;;;;4997996;28;20264;-86
2022/03/18 04:24:31;;;;;;;15.00;4.70;;;1.10;99.90;;;;;;4998030;28;20188;-86
2022/03/18 04:26:57;;;;;;;6.53;3.90;;;1.10;99.90;;;;;;4997428;28;20229;-84
2022/03/18 04:29:23;;;;;;;8.33;3.63;;;1.10;99.90;;;;;;4997026;28;20179;-85
2022/03/18 04:31:49;;;;;;;7.10;4.03;;;1.10;99.90;;;;;;4997683;28;20172;-82
2022/03/18 04:34:16;;;;;;;7.53;4.10;;;1.10;99.90;;;;;;4997761;28;20179;-86
2022/03/18 04:36:42;;;;;;;9.07;3.50;;;1.10;99.90;;;;;;4997740;28;20201;-85
2022/03/18 04:39:07;;;;;;;7.60;3.77;;;1.10;99.90;;;;;;4997546;28;20606;-86
2022/03/18 04:41:33;;;;;;;7.63;4.00;;;1.00;99.90;;;;;;4996406;28;20199;-86
2022/03/18 04:44:01;;;;;;;7.77;3.67;;;0.90;99.90;;;;;;4997412;28;20518;-86
2022/03/18 04:46:28;;;;;;;10.03;4.67;;;0.90;99.90;;;;;;4997268;28;20166;-87
2022/03/18 04:48:54;;;;;;;9.63;3.80;;;0.90;99.90;;;;;;4997476;28;20165;-86
2022/03/18 04:51:20;;;;;;;8.43;3.97;;;0.80;99.90;;;;;;4996921;28;20205;-87
2022/03/18 04:53:46;;;;;;;9.57;4.23;;;0.90;99.90;;;;;;4996896;28;20172;-87
2022/03/18 04:58:56;;;;;;;6.37;4.10;;;0.90;99.90;;;;;;4997226;28;20720;-86
2022/03/18 05:01:22;;;;;;;12.40;4.50;;;0.90;99.90;;;;;;4997123;28;20247;-86
2022/03/18 05:03:48;;;;;;;7.00;3.90;;;0.80;99.90;;;;;;4996102;28;20181;-86
2022/03/18 05:06:13;;;;;;;8.80;3.97;;;0.80;99.90;;;;;;4997109;28;20206;-86
2022/03/18 05:08:39;;;;;;;9.43;4.17;;;0.80;99.90;;;;;;4997008;28;20690;-86
2022/03/18 05:11:05;;;;;;;8.60;4.37;;;0.80;99.90;;;;;;4996986;28;20172;-86
2022/03/18 05:13:30;;;;;;;6.27;3.80;;;0.80;99.90;;;;;;4996948;28;20164;-87
2022/03/18 05:15:56;;;;;;;8.63;3.83;;;0.80;99.90;;;;;;4995412;28;20175;-88
2022/03/18 05:18:22;;;;;;;9.23;4.20;;;0.90;99.90;;;;;;4996968;28;20217;-87
2022/03/18 05:20:48;;;;;;;11.07;4.27;;;0.70;99.90;;;;;;4997084;28;20184;-85
2022/03/18 05:23:14;;;;;;;13.53;4.00;;;0.70;99.90;;;;;;4996939;28;20262;-88
2022/03/18 05:25:40;;;;;;;7.90;3.43;;;0.70;99.90;;;;;;4996486;28;20228;-87
2022/03/18 05:28:07;;;;;;;9.33;4.10;;;0.70;99.90;;;;;;4996479;28;20179;-87
2022/03/18 05:30:34;;;;;;;6.87;3.80;;;0.70;99.90;;;;;;4996437;28;20187;-87
2022/03/18 05:33:00;;;;;;;11.30;4.13;;;0.80;99.90;;;;;;4996619;28;20216;-87
2022/03/18 05:35:25;;;;;;;7.87;3.67;;;0.80;99.90;;;;;;4996608;28;20180;-86
2022/03/18 05:37:51;;;;;;;11.33;4.10;;;0.80;99.90;;;;;;4996232;28;20279;-87
2022/03/18 05:40:18;;;;;;;7.40;4.10;;;0.60;99.90;;;;;;4996164;28;20212;-88
2022/03/18 05:42:46;;;;;;;7.17;4.20;;;0.50;99.90;;;;;;4996022;28;20175;-87
2022/03/18 05:45:13;;;;;;;8.80;3.80;;;0.40;99.90;;;;;;4996307;28;20181;-88
2022/03/18 05:47:38;;;;;;;6.90;4.13;;;0.30;99.90;;;;;;4996080;28;20215;-88
2022/03/18 05:50:06;;;;;;;8.27;3.50;;;0.30;99.90;;;;;;4996353;28;20200;-88
2022/03/18 05:52:34;;;;;;;9.07;4.23;;;0.30;99.90;;;;;;4996223;28;20174;-87
2022/03/18 05:55:00;;;;;;;7.70;3.87;;;0.30;99.90;;;;;;4996416;28;20187;-87
2022/03/18 05:57:27;;;;;;;6.37;3.80;;;0.30;99.90;;;;;;4996129;28;20225;-88
2022/03/18 05:59:57;;;;;;;12.43;4.60;;;0.40;99.90;;;;;;4996248;28;20204;-88
2022/03/18 06:02:23;;;;;;;8.00;4.13;;;0.40;99.90;;;;;;4996102;28;20178;-87
2022/03/18 06:04:49;;;;;;;10.70;3.70;;;0.30;99.90;;;;;;4996081;28;20238;-88
2022/03/18 06:07:15;;;;;;;10.50;4.10;;;0.40;99.90;;;;;;4996159;28;20176;-87
2022/03/18 06:12:26;;;;;;;16.33;4.13;;;0.50;99.90;;;;;;4996682;28;20178;-84
2022/03/18 06:14:52;;;;;;;8.23;4.10;;;0.50;99.90;;;;;;5003064;28;20179;-81
2022/03/18 06:17:17;;;;;;;10.93;4.07;;;0.60;99.90;;;;;;4991229;28;20619;-83
2022/03/18 06:19:43;;;;;;;11.03;5.17;;;0.50;99.90;;;;;;4994844;28;20202;-84
2022/03/18 06:22:09;;;;;;;13.23;5.80;;;0.40;99.90;;;;;;4994961;28;20176;-85
2022/03/18 06:24:35;;;;;;;10.67;5.20;;;0.30;99.90;;;;;;4994720;28;20183;-85
2022/03/18 06:27:02;;;;;;;17.83;6.10;;;0.40;99.90;;;;;;4995209;28;20553;-83
2022/03/18 06:29:29;;;;;;;23.93;6.77;;;0.40;99.90;;;;;;5011567;28;20209;-85
2022/03/18 06:31:56;;;;;;;18.43;5.80;;;0.50;99.90;;;;;;5002766;28;20218;-85
2022/03/18 06:34:22;;;;;;;19.57;6.77;;;0.60;99.90;;;;;;4995281;28;20266;-85
2022/03/18 06:36:52;;;;;;;19.60;5.97;;;0.70;99.90;;;;;;4994111;28;20656;-85
2022/03/18 06:39:19;;;;;;;19.97;5.30;;;0.70;99.90;;;;;;4993716;28;20216;-85
2022/03/18 06:41:46;;;;;;;20.50;5.47;;;0.70;99.90;;;;;;4995187;28;20176;-85
2022/03/18 06:44:12;;;;;;;21.17;6.33;;;0.70;99.90;;;;;;5011066;28;20187;-83
2022/03/18 06:46:38;;;;;;;36.53;5.93;;;0.80;99.90;;;;;;5015097;28;20392;-84
2022/03/18 06:49:04;;;;;;;25.13;5.93;;;0.70;99.90;;;;;;5002720;28;20290;-86
2022/03/18 06:51:30;;;;;;;15.97;5.40;;;0.70;99.90;;;;;;4994947;28;20596;-85
2022/03/18 06:53:56;;;;;;;32.00;6.60;;;0.80;99.90;;;;;;4994584;28;20212;-84
2022/03/18 06:56:22;;;;;;;24.33;5.97;;;0.80;99.90;;;;;;4993911;28;20188;-86
2022/03/18 06:58:48;;;;;;;24.53;6.00;;;0.80;99.90;;;;;;4995101;28;20209;-85
2022/03/18 07:01:14;;;;;;;16.13;6.23;;;0.90;99.90;;;;;;4995375;28;20183;-85
2022/03/18 07:03:40;;;;;;;20.73;6.83;;;1.00;99.90;;;;;;4995300;28;20172;-86
2022/03/18 07:06:06;;;;;;;15.63;5.97;;;1.10;99.90;;;;;;4994817;28;20227;-85
2022/03/18 07:08:32;;;;;;;12.17;5.73;;;1.20;99.90;;;;;;4994137;28;20187;-84
2022/03/18 07:10:58;;;;;;;13.93;5.60;;;1.30;99.90;;;;;;4994587;28;20508;-85
2022/03/18 07:13:24;;;;;;;13.80;5.90;;;1.30;99.90;;;;;;4995050;28;20179;-86
2022/03/18 07:15:49;;;;;;;18.70;5.40;;;1.40;99.90;;;;;;4994661;28;20184;-84
2022/03/18 07:18:15;;;;;;;12.13;5.00;;;1.50;99.90;;;;;;4994147;28;20623;-85
2022/03/18 07:20:42;;;;;;;13.20;5.73;;;1.60;99.90;;;;;;4991294;28;20318;-85
2022/03/18 07:23:10;;;;;;;11.13;5.13;;;1.60;99.90;;;;;;4994430;28;20234;-84
2022/03/18 07:25:38;;;;;;;38.20;5.87;;;1.60;99.90;;;;;;4993926;28;20265;-85
2022/03/18 07:28:07;;;;;;;12.70;5.13;;;1.70;99.90;;;;;;4994601;28;20551;-85
2022/03/18 07:30:33;;;;;;;11.87;5.23;;;1.70;99.90;;;;;;4992866;28;20573;-84
2022/03/18 07:32:59;;;;;;;9.80;5.60;;;1.80;99.90;;;;;;4994494;28;20171;-84
2022/03/18 07:35:25;;;;;;;27.33;5.00;;;1.80;99.90;;;;;;4993062;28;20299;-83
2022/03/18 07:37:51;;;;;;;15.60;4.47;;;1.90;99.90;;;;;;4994050;28;20181;-83
2022/03/18 07:40:18;;;;;;;14.27;5.00;;;1.90;99.90;;;;;;4996776;28;20604;-82
2022/03/18 07:42:47;;;;;;;14.60;5.37;;;2.00;99.90;;;;;;4996440;28;20180;-84
2022/03/18 07:45:21;;;;;;;11.90;4.37;;;2.00;99.90;;;;;;4992405;28;20599;-82
2022/03/18 07:47:49;;;;;;;13.23;4.40;;;2.10;99.90;;;;;;4974677;28;20172;-83
2022/03/18 07:50:20;;;;;;;9.60;4.97;;;2.20;99.90;;;;;;4974935;28;20204;-83
2022/03/18 07:52:47;;;;;;;7.80;4.67;;;2.20;99.90;;;;;;4988366;28;20238;-83
2022/03/18 07:55:13;;;;;;;10.47;4.30;;;2.20;99.90;;;;;;5002408;28;20563;-83
2022/03/18 07:57:39;;;;;;;8.17;4.60;;;2.30;99.90;;;;;;5003974;28;20246;-84
2022/03/18 08:00:05;;;;;;;10.63;4.67;;;2.30;99.90;;;;;;4993458;28;20297;-83
2022/03/18 08:02:31;;;;;;;8.20;4.60;;;2.40;99.90;;;;;;4992551;28;20179;-84
2022/03/18 08:04:57;;;;;;;4.27;3.87;;;2.50;99.90;;;;;;4994803;28;20187;-84
2022/03/18 08:07:22;;;;;;;6.43;4.77;;;2.50;99.90;;;;;;4997314;28;20175;-83
2022/03/18 08:09:48;;;;;;;13.43;5.23;;;2.60;99.90;;;;;;5006929;28;20226;-83
2022/03/18 08:12:14;;;;;;;46.17;6.37;;;2.60;99.90;;;;;;5016065;28;20252;-83
2022/03/18 08:14:39;;;;;;;10.10;5.47;;;2.70;99.90;;;;;;5028529;28;20278;-83
2022/03/18 08:17:06;;;;;;;12.40;5.93;;;2.70;99.90;;;;;;4996717;28;20558;-83
2022/03/18 08:19:32;;;;;;;13.77;7.07;;;2.80;99.90;;;;;;4996102;28;20205;-82
2022/03/18 08:21:59;;;;;;;13.67;6.07;;;2.80;99.90;;;;;;4997207;28;20564;-82
2022/03/18 08:24:25;;;;;;;12.40;6.60;;;2.90;99.90;;;;;;4997199;28;20645;-83
2022/03/18 08:26:51;;;;;;;9.03;5.90;;;2.90;99.90;;;;;;4996738;28;20311;-82
2022/03/18 08:29:17;;;;;;;13.90;6.17;;;3.00;99.90;;;;;;5011981;28;20499;-82
2022/03/18 08:31:42;;;;;;;10.07;6.10;;;3.20;99.90;;;;;;5012091;28;20234;-82
2022/03/18 08:34:08;;;;;;;10.93;6.43;;;3.30;99.90;;;;;;4997129;28;20241;-82
2022/03/18 08:36:33;;;;;;;13.73;6.50;;;3.60;99.90;;;;;;4996862;28;20238;-82
2022/03/18 08:38:59;;;;;;;10.27;6.67;;;3.60;99.90;;;;;;4996920;28;20208;-81
2022/03/18 08:41:25;;;;;;;13.97;6.63;;;3.90;99.90;;;;;;4997034;28;20179;-83
2022/03/18 08:43:51;;;;;;;11.70;6.80;;;4.00;99.90;;;;;;4996473;28;20180;-82
2022/03/18 08:46:16;;;;;;;13.97;6.93;;;4.20;99.90;;;;;;4995183;28;20180;-82
2022/03/18 08:48:45;;;;;;;11.10;6.63;;;4.40;99.90;;;;;;4996752;28;20562;-82
2022/03/18 08:51:11;;;;;;;10.97;6.93;;;4.50;99.90;;;;;;5011823;28;20184;-82
2022/03/18 08:53:37;;;;;;;15.30;6.30;;;4.60;99.90;;;;;;4996684;28;20179;-83
2022/03/18 08:56:03;;;;;;;11.60;6.07;;;4.60;99.90;;;;;;4995533;28;20195;-82
2022/03/18 08:58:29;;;;;;;11.37;6.17;;;4.70;99.90;;;;;;5003398;28;20187;-82
2022/03/18 09:00:54;;;;;;;13.33;6.53;;;4.80;99.90;;;;;;4996433;28;20192;-82
2022/03/18 09:03:20;;;;;;;13.53;6.57;;;4.80;99.90;;;;;;4995767;28;20187;-82
2022/03/18 09:05:46;;;;;;;14.43;6.37;;;4.90;99.90;;;;;;4996165;28;20581;-82
2022/03/18 09:08:13;;;;;;;17.27;6.60;;;4.90;99.90;;;;;;4994310;28;20176;-82
2022/03/18 09:10:38;;;;;;;13.03;6.10;;;5.00;99.90;;;;;;4996568;28;20236;-81
2022/03/18 09:13:04;;;;;;;16.77;6.87;;;5.10;99.90;;;;;;4995836;28;20164;-80
2022/03/18 09:15:30;;;;;;;20.53;6.17;;;5.20;99.90;;;;;;5014163;28;20218;-81
2022/03/18 09:17:56;;;;;;;14.30;5.10;;;5.30;99.90;;;;;;5015212;28;20254;-82
2022/03/18 09:20:22;;;;;;;15.70;5.20;;;5.40;99.90;;;;;;5013474;28;20215;-82
2022/03/18 09:22:48;;;;;;;19.30;6.07;;;5.50;99.90;;;;;;4996294;28;20646;-82
2022/03/18 09:25:14;;;;;;;18.57;6.00;;;5.70;99.90;;;;;;4994738;28;20354;-81
2022/03/18 09:27:40;;;;;;;22.80;5.50;;;5.70;99.90;;;;;;4995614;28;20160;-81
2022/03/18 09:30:08;;;;;;;17.27;5.23;;;5.70;99.90;;;;;;4995931;28;20179;-81
2022/03/18 09:32:34;;;;;;;19.77;6.03;;;5.80;99.90;;;;;;4995673;28;20517;-82
2022/03/18 09:34:59;;;;;;;23.07;6.03;;;5.90;99.90;;;;;;5003544;28;20176;-81
2022/03/18 09:37:25;;;;;;;19.67;5.70;;;6.00;99.90;;;;;;5004943;28;20190;-82
2022/03/18 09:39:51;;;;;;;28.53;6.10;;;6.10;99.90;;;;;;5004272;28;20200;-82
2022/03/18 09:42:16;;;;;;;18.37;5.70;;;6.20;99.90;;;;;;5000148;28;20180;-81
2022/03/18 09:44:42;;;;;;;18.63;6.00;;;6.30;99.90;;;;;;4994771;28;20176;-81
2022/03/18 09:47:08;;;;;;;18.13;4.87;;;6.50;99.90;;;;;;4994265;28;20227;-80
2022/03/18 09:49:35;;;;;;;21.17;5.60;;;6.60;99.90;;;;;;4995423;28;20179;-82
2022/03/18 09:52:03;;;;;;;13.00;4.27;;;6.70;99.90;;;;;;4995345;28;20531;-81
2022/03/18 09:54:32;;;;;;;17.50;4.90;;;6.70;99.90;;;;;;4993949;28;20195;-82
2022/03/18 09:56:59;;;;;;;15.87;4.77;;;6.70;99.90;;;;;;4994943;28;20187;-82
2022/03/18 09:59:27;;;;;;;13.93;4.83;;;6.80;99.90;;;;;;4994664;28;20208;-82
2022/03/18 10:02:24;;;;;;;16.67;4.20;;;7.00;99.90;;;;;;5010127;28;20180;-80
2022/03/18 10:05:10;;;;;;;12.20;4.00;;;7.10;99.90;;;;;;4995206;28;20254;-80
2022/03/18 10:07:36;;;;;;;11.00;3.70;;;7.10;99.90;;;;;;4995356;28;20164;-81
2022/03/18 10:10:16;;;;;;;10.53;3.13;;;7.20;99.90;;;;;;4995731;28;20556;-82
2022/03/18 10:12:44;;;;;;;7.80;2.90;;;7.30;99.90;;;;;;5013039;28;20190;-82
2022/03/18 10:15:19;;;;;;;12.33;3.03;;;7.40;99.90;;;;;;5014590;28;20175;-82
2022/03/18 10:17:47;;;;;;;13.10;3.80;;;7.40;99.90;;;;;;5013182;28;20703;-82
2022/03/18 10:20:25;;;;;;;12.73;3.50;;;7.50;99.90;;;;;;5014766;28;20203;-83
2022/03/18 10:22:53;;;;;;;12.03;3.57;;;7.70;99.90;;;;;;5013580;28;20175;-82
2022/03/18 10:25:42;;;;;;;14.53;3.97;;;7.60;99.90;;;;;;5013160;28;20531;-82
2022/03/18 10:28:09;;;;;;;9.20;3.63;;;7.70;99.90;;;;;;5012179;28;20172;-83
2022/03/18 10:30:36;;;;;;;16.27;3.60;;;7.90;99.90;;;;;;5014626;28;20175;-82
2022/03/18 10:33:03;;;;;;;11.13;3.17;;;8.00;99.90;;;;;;5014827;28;20167;-84
2022/03/18 10:38:31;;;;;;;13.30;3.47;;;8.20;99.90;;;;;;5009720;28;20274;-82
2022/03/18 10:40:59;;;;;;;13.93;3.07;;;8.20;99.90;;;;;;5000437;28;20191;-81
2022/03/18 10:43:25;;;;;;;14.93;3.27;;;8.30;99.90;;;;;;5012370;28;20175;-82
2022/03/18 10:46:05;;;;;;;13.00;3.27;;;8.20;99.90;;;;;;5014535;28;20274;-82
2022/03/18 10:48:32;;;;;;;14.60;3.40;;;8.20;99.90;;;;;;5014119;28;20626;-82
2022/03/18 10:51:05;;;;;;;13.47;3.10;;;8.30;99.90;;;;;;5013194;28;20194;-81
2022/03/18 10:53:32;;;;;;;9.10;2.93;;;8.40;99.90;;;;;;4994767;28;20178;-82
2022/03/18 10:56:01;;;;;;;15.33;3.40;;;8.50;99.90;;;;;;5003423;28;20175;-82
2022/03/18 10:58:30;;;;;;;12.73;4.00;;;8.40;99.90;;;;;;4994005;28;20238;-83
2022/03/18 11:00:59;;;;;;;11.07;3.73;;;8.50;99.90;;;;;;5003861;28;20198;-82
2022/03/18 11:03:25;;;;;;;14.37;4.30;;;8.70;99.90;;;;;;5013508;28;20171;-82
2022/03/18 11:05:52;;;;;;;12.93;4.10;;;8.80;99.90;;;;;;5014586;28;20491;-82
2022/03/18 11:08:23;;;;;;;11.73;4.13;;;8.90;99.90;;;;;;5002222;28;20230;-83
2022/03/18 11:11:15;;;;;;;9.90;3.27;;;9.00;99.90;;;;;;4995670;28;20596;-82
2022/03/18 11:14:03;;;;;;;8.50;3.33;;;9.10;99.90;;;;;;5014069;28;20250;-81
2022/03/18 11:16:34;;;;;;;12.93;3.57;;;9.30;99.90;;;;;;4995576;28;20315;-79
2022/03/18 11:19:08;;;;;;;10.90;3.93;;;9.30;99.90;;;;;;4994619;28;20247;-81
2022/03/18 11:21:40;;;;;;;16.80;4.03;;;9.40;99.90;;;;;;4993298;28;20191;-82
2022/03/18 11:24:09;;;;;;;11.57;3.90;;;9.40;99.90;;;;;;4993976;28;20180;-83
2022/03/18 11:26:36;;;;;;;16.33;3.90;;;9.60;99.90;;;;;;4999743;28;20350;-83
2022/03/18 11:29:19;;;;;;;11.97;3.67;;;9.70;99.90;;;;;;4993826;28;20187;-81
2022/03/18 11:32:12;;;;;;;11.27;3.20;;;9.90;99.90;;;;;;4996229;28;20191;-82
2022/03/18 11:35:03;;;;;;;13.57;3.00;;;10.10;99.90;;;;;;5012625;28;20214;-80
2022/03/18 11:37:29;;;;;;;12.40;3.57;;;9.90;99.90;;;;;;5013973;28;20554;-81
2022/03/18 11:40:20;;;;;;;13.00;4.53;;;10.00;99.90;;;;;;5009125;28;20227;-82
2022/03/18 11:42:48;;;;;;;10.80;3.40;;;10.00;99.90;;;;;;4997562;28;20187;-81
2022/03/18 11:45:36;;;;;;;7.77;3.40;;;10.00;99.90;;;;;;5000860;28;20618;-83
2022/03/18 11:48:34;;;;;;;12.47;3.77;;;10.20;99.90;;;;;;5017576;28;20170;-82
2022/03/18 11:51:24;;;;;;;12.43;3.50;;;10.50;99.90;;;;;;5017574;28;20190;-82
2022/03/18 11:53:52;;;;;;;10.77;3.17;;;10.60;99.90;;;;;;5012819;28;20230;-83
2022/03/18 11:56:51;;;;;;;9.70;3.58;;;10.70;99.90;;;;;;4996641;28;20652;-81
2022/03/18 11:59:27;;;;;;;9.80;3.30;;;10.80;99.90;;;;;;4997425;28;20689;-83
2022/03/18 12:02:00;;;;;;;10.75;3.40;;;11.00;99.90;;;;;;5012945;28;20175;-84
2022/03/18 12:04:41;;;;;;;10.30;3.28;;;11.10;99.90;;;;;;5002835;28;20183;-82
2022/03/18 12:07:24;;;;;;;12.95;3.42;;;11.20;99.90;;;;;;5012548;28;20167;-82
2022/03/18 12:09:53;;;;;;;10.70;3.28;;;11.30;99.90;;;;;;5011320;28;20263;-81
2022/03/18 12:12:21;;;;;;;10.70;3.80;;;11.40;99.90;;;;;;4996186;28;20176;-83
2022/03/18 12:14:47;;;;;;;11.07;3.65;;;11.40;99.90;;;;;;4996123;28;20266;-82
2022/03/18 12:17:13;;;;;;;11.60;3.50;;;11.50;99.90;;;;;;4997562;28;20175;-82
2022/03/18 12:19:39;;;;;;;11.23;3.53;;;11.50;99.90;;;;;;5001060;28;20903;-82
2022/03/18 12:22:06;;;;;;;9.95;3.28;;;11.50;99.90;;;;;;4999505;28;20176;-82
2022/03/18 12:24:32;;;;;;;14.27;3.80;;;11.70;99.90;;;;;;4997225;28;20184;-82
2022/03/18 12:27:01;;;;;;;12.88;3.20;;;11.70;99.90;;;;;;4997161;28;20257;-83
2022/03/18 12:29:29;;;;;;;10.52;3.30;;;11.60;99.90;;;;;;4995771;28;20199;-82
2022/03/18 12:32:13;;;;;;;11.23;3.30;;;11.60;99.90;;;;;;4997163;28;20188;-80
2022/03/18 12:34:51;;;;;;;8.90;2.85;;;11.80;99.90;;;;;;4997014;28;20160;-80
2022/03/18 12:37:20;;;;;;;6.90;2.67;;;12.00;99.90;;;;;;4997377;28;20330;-82
2022/03/18 12:39:48;;;;;;;10.40;3.28;;;12.10;99.90;;;;;;4996920;28;20211;-82
2022/03/18 12:42:14;;;;;;;11.57;3.10;;;12.00;99.90;;;;;;4997324;28;20187;-82
2022/03/18 12:44:45;;;;;;;7.95;2.60;;;11.90;99.90;;;;;;4996420;28;20180;-83
2022/03/18 12:47:12;;;;;;;13.23;3.30;;;11.80;99.90;;;;;;4996944;28;20157;-83
2022/03/18 12:49:38;;;;;;;10.65;2.95;;;11.80;99.90;;;;;;4996481;28;20185;-85
2022/03/18 12:52:09;;;;;;;8.93;3.35;;;11.90;99.90;;;;;;4996569;28;20190;-83
2022/03/18 12:54:34;;;;;;;14.10;3.00;;;12.00;99.90;;;;;;5011923;28;20184;-83
2022/03/18 12:57:02;;;;;;;11.32;2.53;;;12.20;99.90;;;;;;4996669;28;20642;-81
2022/03/18 12:59:27;;;;;;;12.57;2.90;;;12.20;99.90;;;;;;5007502;28;20289;-83
2022/03/18 13:01:57;;;;;;;11.35;2.95;;;12.10;99.90;;;;;;5016263;28;20298;-83
2022/03/18 13:04:24;;;;;;;7.85;2.80;;;12.30;99.90;;;;;;5006224;28;20199;-83
2022/03/18 13:06:56;;;;;;;9.95;2.88;;;12.40;99.90;;;;;;5006062;28;20176;-82
2022/03/18 13:09:22;;;;;;;12.57;3.38;;;12.50;99.90;;;;;;5002558;28;20168;-82